ADDS METAR Data INFO
IDs: Format: Raw Decoded Include TAF

Data at: 0107 UTC 24 Jun 2018

KELD 240053Z AUTO 00000KT 10SM FEW060 31/27 A2981 RMK AO2 SLP090 T03060267
KELD 232353Z AUTO 25004KT 10SM BKN055 33/25 A2980 RMK AO2 SLP089 T03280250 10344 20317 53001
KELD 232253Z AUTO 18007KT 10SM CLR 34/24 A2980 RMK AO2 SLP085 T03440239
KELD 232153Z AUTO 21008KT 10SM CLR 34/24 A2980 RMK AO2 SLP088 T03440244
KELD 232053Z AUTO 21012KT 10SM CLR 34/25 A2980 RMK AO2 SLP087 T03390250 56026
KELD 231953Z AUTO 22011KT 10SM CLR 34/26 A2982 RMK AO2 SLP094 T03390256
KELD 231853Z AUTO 21007KT 10SM CLR 33/26 A2984 RMK AO2 SLP100 T03330256
KELD 231753Z AUTO 19010KT 10SM SCT032 33/26 A2988 RMK AO2 SLP114 60001 T03280256 10328 20256 58015
KELD 231653Z AUTO 23009KT 10SM FEW027 32/26 A2990 RMK AO2 SLP120 T03220261
KELD 231553Z AUTO 21007KT 10SM CLR 29/27 A2991 RMK AO2 LTG DSNT E RAB1455E23 SLP124 P0001 T02940272
KELD 231513Z AUTO 00000KT 10SM -RA SCT015 BKN043 OVC100 26/26 A2992 RMK AO2 RAB1455 P0001 T02560256
KELD 231453Z AUTO 35007KT 10SM SCT012 BKN018 OVC029 27/26 A2992 RMK AO2 SLP128 T02670256 53024
KELD 231420Z AUTO VRB04KT 10SM BKN016 OVC024 27/26 A2991 RMK AO2 T02720261
KELD 231353Z AUTO 34004KT 10SM BKN014 BKN019 OVC025 27/26 A2989 RMK AO2 SLP118 T02720256
KELD 231328Z AUTO 00000KT 10SM BKN010 OVC017 26/25 A2988 RMK AO2 CIG 008V013 T02560250
KELD 231320Z AUTO 33007KT 10SM BKN009 OVC015 26/25 A2988 RMK AO2 CIG 008V013 T02560250
KELD 231313Z AUTO VRB04KT 10SM SCT009 BKN012 OVC017 26/25 A2987 RMK AO2 T02560250
KELD 231253Z AUTO 00000KT 8SM BKN014 OVC023 27/26 A2986 RMK AO2 SLP109 T02670261
KELD 231153Z AUTO 20004KT 7SM FEW015 OVC020 26/26 A2985 RMK AO2 SLP103 70004 T02610261 10261 20256 50018
KELD 231053Z AUTO 21004KT 9SM BKN020 OVC025 26/26 A2986 RMK AO2 SLP107 T02610261
KELD 231002Z AUTO 21007KT 9SM OVC016 26/26 A2984 RMK AO2 T02610261
KELD 230953Z AUTO 21009KT 9SM OVC014 26/26 A2983 RMK AO2 SLP098 T02610261
KELD 230908Z AUTO 20006KT 10SM BKN012 26/26 A2981 RMK AO2 T02610256
KELD 230853Z AUTO 20007KT 10SM CLR 26/26 A2980 RMK AO2 SLP085 T02560256 53004
KELD 230753Z AUTO 19006KT 10SM CLR 26/25 A2977 RMK AO2 SLP077 T02560250
KELD 230653Z AUTO 20003KT 10SM CLR 26/25 A2978 RMK AO2 SLP079 T02560250
KELD 230553Z AUTO 00000KT 10SM CLR 26/26 A2978 RMK AO2 SLP081 T02610256 10333 20256 403330239 50007
KELD 230453Z AUTO 19003KT 10SM CLR 26/26 A2980 RMK AO2 SLP086 T02610261
KELD 230353Z AUTO 00000KT 10SM CLR 27/27 A2978 RMK AO2 SLP079 T02670267
KELD 230253Z AUTO 13005KT 10SM FEW055 27/27 A2976 RMK AO2 SLP074 T02720267 51002
KELD 230153Z AUTO 09007KT 10SM BKN055 BKN070 BKN085 28/27 A2976 RMK AO2 SLP073 T02780272
KELD 230053Z AUTO 07006KT 10SM BKN055 31/28 A2976 RMK AO2 SLP073 T03060283
KELD 222353Z AUTO 36003KT 10SM CLR 33/27 A2976 RMK AO2 SLP072 60004 T03330267 10333 20278 56012
KELD 222253Z AUTO 29007KT 10SM CLR 33/27 A2977 RMK AO2 SLP075 T03280272
KELD 222153Z AUTO 31004KT 10SM CLR 31/27 A2977 RMK AO2 RAE16 TSE25 SLP078 P0004 T03110267
KELD 222131Z AUTO 32004KT 10SM FEW040 FEW055 30/27 A2978 RMK AO2 RAE16 TSE25 P0004 T03000267
KELD 222053Z AUTO 25006KT 10SM -TSRA SCT038 BKN048 BKN070 31/25 A2979 RMK AO2 RAB41 TSB43 SLP084 P0000 60000 T03110250 55006
KELD 222049Z AUTO 25004KT 10SM -TSRA FEW040 SCT050 BKN070 31/25 A2979 RMK AO2 RAB41 TSB43 P0000
KELD 222040Z AUTO 25005KT 10SM VCTS FEW060 FEW075 FEW100 32/24 A2979 RMK AO2 T03170244
KELD 221953Z AUTO 26004KT 10SM FEW037 30/24 A2981 RMK AO2 LTG DSNT E TSB13E28 SLP089 T03000244
KELD 221942Z AUTO 00000KT 10SM FEW037 29/24 A2980 RMK AO2 LTG DSNT NE AND E TSB13E28 T02940244
KELD 221934Z AUTO 25004KT 10SM VCTS FEW037 29/24 A2981 RMK AO2 LTG DSNT N-E TSB13E28 T02940239
KELD 221919Z AUTO 24006KT 10SM TS FEW110 29/24 A2982 RMK AO2 LTG DSNT NW-E TSB13 T02940244
KELD 221908Z AUTO 23007KT 10SM VCTS FEW080 SCT120 30/24 A2981 RMK AO2 LTG DSNT NW-E T03000244
KELD 221853Z AUTO 21011KT 10SM FEW039 SCT080 BKN110 31/24 A2981 RMK AO2 LTG DSNT ALQDS SLP091 T03060244
KELD 221753Z AUTO 24009G15KT 10SM FEW034 FEW075 32/25 A2983 RMK AO2 LTG DSNT N AND NW SLP098 T03220250 10322 20256 58016
KELD 221653Z AUTO 24011G20KT 10SM SCT031 SCT035 BKN065 31/25 A2986 RMK AO2 SLP108 T03060250
KELD 221640Z AUTO 23008KT 10SM SCT027 BKN033 BKN070 31/26 A2986 RMK AO2 T03060256
KELD 221613Z AUTO 22012G15KT 10SM BKN026 BKN032 31/26 A2986 RMK AO2 T03060256
KELD 221601Z AUTO 24015G23KT 10SM SCT025 BKN031 BKN070 30/25 A2986 RMK AO2 T03000250
KELD 221553Z AUTO 26010KT 10SM BKN025 BKN031 31/26 A2986 RMK AO2 SLP108 T03060256
KELD 221453Z AUTO VRB06KT 10SM BKN020 BKN026 OVC070 28/25 A2988 RMK AO2 LTG DSNT NE-SE SLP114 T02830250 53016
KELD 221426Z AUTO 24006KT 10SM SCT018 BKN070 BKN090 27/26 A2987 RMK AO2 LTG DSNT NE-SE T02720256
KELD 221353Z AUTO 24004KT 10SM BKN017 OVC065 26/25 A2986 RMK AO2 LTG DSNT N-E SLP107 T02610250